VGEG/CGP METAR and TAF weather

Enter ICAO airport designator
Station Type Date Time Source
VGEG METAR 2022/11/10 15:00 UTC NOAA

VGEG 101500Z 11004KT 4000 HZ NSC 24/17 Q1013 NOSIG


Station Type Date Time Source
VGEG Decoded METAR 2022/11/10 15:00 UTC NOAA

Chittagong Patenga , Bangladesh (VGEG) 22-16N 091-49E 6M
Nov 10, 2022 - 10:00 AM EST / 2022.11.10 1500 UTC
Wind: from the ESE (110 degrees) at 5 MPH (4 KT):0
Visibility: 2 mile(s):0
Weather: haze
Temperature: 75 F (24 C)
Dew Point: 62 F (17 C)
Relative Humidity: 64%
Pressure (altimeter): 29.91 in. Hg (1013 hPa)
ob: VGEG 101500Z 11004KT 4000 HZ NSC 24/17 Q1013 NOSIG
cycle: 15

Station Type Date Time Source
VGEG TAF 2022/11/27 06:36 UTC NOAA

TAF TAF VGEG 270500Z 2706/2812 09010KT 5000 SCT018
BECMG 2710/2712 33008KT 4000 HZ SCT016
TEMPO 2720/2802 00000KT 3200 HZ SCT015
BECMG 2802/2804 08010KT 4500 HZ SCT017
BECMG 2810/2812 35008KT 4000 HZ SCT016

Example: see airport list